sensor_id;sensor_type;location;lat;lon;timestamp;pressure;altitude;pressure_sealevel;temperature;humidity
6938;BME280;40040;42.706;23.372;2023-12-29T00:02:09;144635.56;;;1.81;100.00
6938;BME280;40040;42.706;23.372;2023-12-29T00:04:37;144649.00;;;1.87;100.00
6938;BME280;40040;42.706;23.372;2023-12-29T00:07:04;144656.38;;;1.90;100.00
6938;BME280;40040;42.706;23.372;2023-12-29T00:09:31;144653.91;;;1.89;100.00
6938;BME280;40040;42.706;23.372;2023-12-29T00:12:04;144641.69;;;1.84;100.00
6938;BME280;40040;42.706;23.372;2023-12-29T00:14:31;144646.56;;;1.86;100.00
6938;BME280;40040;42.706;23.372;2023-12-29T00:16:57;144628.19;;;1.78;100.00
6938;BME280;40040;42.706;23.372;2023-12-29T00:19:25;144623.28;;;1.76;100.00
6938;BME280;40040;42.706;23.372;2023-12-29T00:21:53;144633.09;;;1.80;100.00
6938;BME280;40040;42.706;23.372;2023-12-29T00:24:20;144589.00;;;1.62;100.00
6938;BME280;40040;42.706;23.372;2023-12-29T00:26:46;144600.03;;;1.67;100.00
6938;BME280;40040;42.706;23.372;2023-12-29T00:29:14;144596.38;;;1.65;100.00
6938;BME280;40040;42.706;23.372;2023-12-29T00:31:41;144597.56;;;1.66;100.00
6938;BME280;40040;42.706;23.372;2023-12-29T00:34:08;144530.22;;;1.38;100.00
6938;BME280;40040;42.706;23.372;2023-12-29T00:36:34;144518.00;;;1.33;100.00
6938;BME280;40040;42.706;23.372;2023-12-29T00:39:04;144564.50;;;1.52;100.00
6938;BME280;40040;42.706;23.372;2023-12-29T00:41:31;144573.09;;;1.56;100.00
6938;BME280;40040;42.706;23.372;2023-12-29T00:43:58;144552.28;;;1.47;100.00
6938;BME280;40040;42.706;23.372;2023-12-29T00:46:26;144540.03;;;1.42;100.00
6938;BME280;40040;42.706;23.372;2023-12-29T00:48:53;144491.03;;;1.22;100.00
6938;BME280;40040;42.706;23.372;2023-12-29T00:51:20;144498.41;;;1.25;100.00
6938;BME280;40040;42.706;23.372;2023-12-29T00:53:47;144459.22;;;1.09;100.00
6938;BME280;40040;42.706;23.372;2023-12-29T00:56:15;144411.50;;;0.89;100.00
6938;BME280;40040;42.706;23.372;2023-12-29T00:58:42;144439.66;;;1.01;100.00
6938;BME280;40040;42.706;23.372;2023-12-29T01:01:08;144481.28;;;1.18;100.00
6938;BME280;40040;42.706;23.372;2023-12-29T01:03:37;144481.28;;;1.18;100.00
6938;BME280;40040;42.706;23.372;2023-12-29T01:06:04;144476.38;;;1.16;100.00
6938;BME280;40040;42.706;23.372;2023-12-29T01:08:30;144439.66;;;1.01;100.00
6938;BME280;40040;42.706;23.372;2023-12-29T01:10:58;144427.38;;;0.96;100.00
6938;BME280;40040;42.706;23.372;2023-12-29T01:13:27;144388.25;;;0.80;100.00
6938;BME280;40040;42.706;23.372;2023-12-29T01:15:53;144439.66;;;1.01;100.00
6938;BME280;40040;42.706;23.372;2023-12-29T01:18:20;144426.19;;;0.95;100.00
6938;BME280;40040;42.706;23.372;2023-12-29T01:20:47;144426.19;;;0.95;100.00
6938;BME280;40040;42.706;23.372;2023-12-29T01:23:14;144399.25;;;0.84;100.00
6938;BME280;40040;42.706;23.372;2023-12-29T01:25:41;144388.25;;;0.80;100.00
6938;BME280;40040;42.706;23.372;2023-12-29T01:28:08;144385.78;;;0.79;100.00
6938;BME280;40040;42.706;23.372;2023-12-29T01:30:36;144361.31;;;0.69;100.00
6938;BME280;40040;42.706;23.372;2023-12-29T01:33:04;144368.66;;;0.72;100.00
6938;BME280;40040;42.706;23.372;2023-12-29T01:35:31;144356.41;;;0.67;100.00
6938;BME280;40040;42.706;23.372;2023-12-29T01:37:57;144389.47;;;0.80;100.00
6938;BME280;40040;42.706;23.372;2023-12-29T01:40:24;144398.03;;;0.84;100.00
6938;BME280;40040;42.706;23.372;2023-12-29T01:42:51;144387.03;;;0.79;100.00
6938;BME280;40040;42.706;23.372;2023-12-29T01:45:21;144400.50;;;0.85;100.00
6938;BME280;40040;42.706;23.372;2023-12-29T01:47:50;144420.06;;;0.93;100.00
6938;BME280;40040;42.706;23.372;2023-12-29T01:50:18;144444.53;;;1.03;100.00
6938;BME280;40040;42.706;23.372;2023-12-29T01:52:48;144395.59;;;0.83;100.00
6938;BME280;40040;42.706;23.372;2023-12-29T01:55:18;144434.75;;;0.99;100.00
6938;BME280;40040;42.706;23.372;2023-12-29T01:57:45;144361.31;;;0.69;100.00
6938;BME280;40040;42.706;23.372;2023-12-29T02:00:13;144406.59;;;0.87;100.00
6938;BME280;40040;42.706;23.372;2023-12-29T02:02:42;144380.88;;;0.77;100.00
6938;BME280;40040;42.706;23.372;2023-12-29T02:05:13;144390.69;;;0.81;100.00
6938;BME280;40040;42.706;23.372;2023-12-29T02:07:41;144407.81;;;0.88;100.00
6938;BME280;40040;42.706;23.372;2023-12-29T02:10:08;144407.81;;;0.88;100.00
6938;BME280;40040;42.706;23.372;2023-12-29T02:12:35;144395.59;;;0.83;100.00
6938;BME280;40040;42.706;23.372;2023-12-29T02:15:03;144402.91;;;0.86;100.00
6938;BME280;40040;42.706;23.372;2023-12-29T02:17:37;144417.63;;;0.92;100.00
6938;BME280;40040;42.706;23.372;2023-12-29T02:20:05;144418.81;;;0.92;100.00
6938;BME280;40040;42.706;23.372;2023-12-29T02:22:35;144389.47;;;0.80;100.00
6938;BME280;40040;42.706;23.372;2023-12-29T02:25:04;144390.69;;;0.81;100.00
6938;BME280;40040;42.706;23.372;2023-12-29T02:27:38;144395.59;;;0.83;100.00
6938;BME280;40040;42.706;23.372;2023-12-29T02:30:17;144393.16;;;0.82;100.00
6938;BME280;40040;42.706;23.372;2023-12-29T02:32:46;144376.03;;;0.75;100.00
6938;BME280;40040;42.706;23.372;2023-12-29T02:35:17;144362.56;;;0.69;100.00
6938;BME280;40040;42.706;23.372;2023-12-29T02:37:46;144356.41;;;0.67;100.00
6938;BME280;40040;42.706;23.372;2023-12-29T02:40:15;144383.38;;;0.78;100.00
6938;BME280;40040;42.706;23.372;2023-12-29T02:42:46;144319.72;;;0.52;100.00
6938;BME280;40040;42.706;23.372;2023-12-29T02:45:13;144373.56;;;0.74;100.00
6938;BME280;40040;42.706;23.372;2023-12-29T02:47:41;144371.13;;;0.73;100.00
6938;BME280;40040;42.706;23.372;2023-12-29T02:50:08;144365.00;;;0.70;100.00
6938;BME280;40040;42.706;23.372;2023-12-29T02:52:35;144344.19;;;0.62;100.00
6938;BME280;40040;42.706;23.372;2023-12-29T02:55:02;144371.13;;;0.73;100.00
6938;BME280;40040;42.706;23.372;2023-12-29T02:57:31;144355.19;;;0.66;100.00
6938;BME280;40040;42.706;23.372;2023-12-29T02:59:57;144349.09;;;0.64;100.00
6938;BME280;40040;42.706;23.372;2023-12-29T03:02:24;144334.38;;;0.58;100.00
6938;BME280;40040;42.706;23.372;2023-12-29T03:04:51;144342.97;;;0.61;100.00
6938;BME280;40040;42.706;23.372;2023-12-29T03:07:18;144295.28;;;0.42;100.00
6938;BME280;40040;42.706;23.372;2023-12-29T03:09:45;144336.88;;;0.59;100.00
6938;BME280;40040;42.706;23.372;2023-12-29T03:12:11;144317.25;;;0.51;100.00
6938;BME280;40040;42.706;23.372;2023-12-29T03:14:39;144356.41;;;0.67;100.00
6938;BME280;40040;42.706;23.372;2023-12-29T03:17:06;144345.44;;;0.62;100.00
6938;BME280;40040;42.706;23.372;2023-12-29T03:19:33;144341.75;;;0.61;100.00
6938;BME280;40040;42.706;23.372;2023-12-29T03:22:00;144296.47;;;0.42;100.00
6938;BME280;40040;42.706;23.372;2023-12-29T03:24:28;144330.72;;;0.56;100.00
6938;BME280;40040;42.706;23.372;2023-12-29T03:26:53;144342.97;;;0.61;100.00
6938;BME280;40040;42.706;23.372;2023-12-29T03:29:20;144345.44;;;0.62;100.00
6938;BME280;40040;42.706;23.372;2023-12-29T03:31:48;144317.25;;;0.51;100.00
6938;BME280;40040;42.706;23.372;2023-12-29T03:34:15;144275.69;;;0.34;100.00
6938;BME280;40040;42.706;23.372;2023-12-29T03:36:42;144241.44;;;0.20;100.00
6938;BME280;40040;42.706;23.372;2023-12-29T03:39:09;144202.28;;;0.03;100.00
6938;BME280;40040;42.706;23.372;2023-12-29T03:41:35;144170.50;;;-0.10;100.00
6938;BME280;40040;42.706;23.372;2023-12-29T03:44:02;144102.03;;;-0.38;100.00
6938;BME280;40040;42.706;23.372;2023-12-29T03:46:31;144177.84;;;-0.07;100.00
6938;BME280;40040;42.706;23.372;2023-12-29T03:48:59;144153.38;;;-0.17;100.00
6938;BME280;40040;42.706;23.372;2023-12-29T03:51:26;144172.94;;;-0.09;100.00
6938;BME280;40040;42.706;23.372;2023-12-29T03:53:53;144138.69;;;-0.23;100.00
6938;BME280;40040;42.706;23.372;2023-12-29T03:56:19;144150.97;;;-0.18;100.00
6938;BME280;40040;42.706;23.372;2023-12-29T03:58:46;144163.19;;;-0.13;100.00
6938;BME280;40040;42.706;23.372;2023-12-29T04:01:14;144163.19;;;-0.13;100.00
6938;BME280;40040;42.706;23.372;2023-12-29T04:03:41;144155.81;;;-0.16;100.00
6938;BME280;40040;42.706;23.372;2023-12-29T04:06:10;144148.50;;;-0.19;100.00
6938;BME280;40040;42.706;23.372;2023-12-29T04:08:37;144143.59;;;-0.21;100.00
6938;BME280;40040;42.706;23.372;2023-12-29T04:11:05;144114.25;;;-0.33;100.00
6938;BME280;40040;42.706;23.372;2023-12-29T04:13:32;144073.94;;;-0.49;100.00
6938;BME280;40040;42.706;23.372;2023-12-29T04:15:59;144092.25;;;-0.42;100.00
6938;BME280;40040;42.706;23.372;2023-12-29T04:18:26;144089.81;;;-0.43;100.00
6938;BME280;40040;42.706;23.372;2023-12-29T04:20:53;144106.94;;;-0.36;100.00
6938;BME280;40040;42.706;23.372;2023-12-29T04:23:22;144116.72;;;-0.32;100.00
6938;BME280;40040;42.706;23.372;2023-12-29T04:25:48;144113.06;;;-0.33;100.00
6938;BME280;40040;42.706;23.372;2023-12-29T04:28:15;144138.69;;;-0.23;100.00
6938;BME280;40040;42.706;23.372;2023-12-29T04:30:42;144121.59;;;-0.30;100.00
6938;BME280;40040;42.706;23.372;2023-12-29T04:33:09;144126.47;;;-0.28;100.00
6938;BME280;40040;42.706;23.372;2023-12-29T04:35:36;144119.16;;;-0.31;100.00
6938;BME280;40040;42.706;23.372;2023-12-29T04:38:03;144104.50;;;-0.37;100.00
6938;BME280;40040;42.706;23.372;2023-12-29T04:40:31;143960.31;;;-0.96;100.00
6938;BME280;40040;42.706;23.372;2023-12-29T04:42:58;144082.50;;;-0.46;100.00
6938;BME280;40040;42.706;23.372;2023-12-29T04:45:24;144039.72;;;-0.63;100.00
6938;BME280;40040;42.706;23.372;2023-12-29T04:47:51;143987.16;;;-0.85;100.00
6938;BME280;40040;42.706;23.372;2023-12-29T04:50:18;144093.47;;;-0.41;100.00
6938;BME280;40040;42.706;23.372;2023-12-29T04:52:45;144070.28;;;-0.51;100.00
6938;BME280;40040;42.706;23.372;2023-12-29T04:55:12;144051.94;;;-0.58;100.00
6938;BME280;40040;42.706;23.372;2023-12-29T04:57:40;144009.16;;;-0.76;100.00
6938;BME280;40040;42.706;23.372;2023-12-29T05:00:07;144018.94;;;-0.72;100.00
6938;BME280;40040;42.706;23.372;2023-12-29T05:02:34;144026.25;;;-0.69;100.00
6938;BME280;40040;42.706;23.372;2023-12-29T05:05:01;144045.81;;;-0.61;100.00
6938;BME280;40040;42.706;23.372;2023-12-29T05:07:28;144048.28;;;-0.60;100.00
6938;BME280;40040;42.706;23.372;2023-12-29T05:09:55;143979.84;;;-0.88;100.00
6938;BME280;40040;42.706;23.372;2023-12-29T05:12:22;144060.50;;;-0.55;100.00
6938;BME280;40040;42.706;23.372;2023-12-29T05:14:50;144062.91;;;-0.54;100.00
6938;BME280;40040;42.706;23.372;2023-12-29T05:17:17;144040.94;;;-0.63;100.00
6938;BME280;40040;42.706;23.372;2023-12-29T05:19:42;144018.94;;;-0.72;100.00
6938;BME280;40040;42.706;23.372;2023-12-29T05:22:09;143974.94;;;-0.90;100.00
6938;BME280;40040;42.706;23.372;2023-12-29T05:24:37;143946.84;;;-1.01;100.00
6938;BME280;40040;42.706;23.372;2023-12-29T05:27:04;143963.97;;;-0.94;100.00
6938;BME280;40040;42.706;23.372;2023-12-29T05:29:31;143930.94;;;-1.08;100.00
6938;BME280;40040;42.706;23.372;2023-12-29T05:31:59;143930.94;;;-1.08;100.00
6938;BME280;40040;42.706;23.372;2023-12-29T05:34:27;143908.97;;;-1.17;100.00
6938;BME280;40040;42.706;23.372;2023-12-29T05:36:54;143889.41;;;-1.25;100.00
6938;BME280;40040;42.706;23.372;2023-12-29T05:39:21;143868.66;;;-1.34;100.00
6938;BME280;40040;42.706;23.372;2023-12-29T05:41:48;143777.09;;;-1.71;100.00
6938;BME280;40040;42.706;23.372;2023-12-29T05:44:15;143823.47;;;-1.52;100.00
6938;BME280;40040;42.706;23.372;2023-12-29T05:46:46;143869.88;;;-1.33;100.00
6938;BME280;40040;42.706;23.372;2023-12-29T05:49:14;143862.56;;;-1.36;100.00
6938;BME280;40040;42.706;23.372;2023-12-29T05:51:41;143867.41;;;-1.34;100.00
6938;BME280;40040;42.706;23.372;2023-12-29T05:54:08;143781.97;;;-1.69;100.00
6938;BME280;40040;42.706;23.372;2023-12-29T05:56:35;143896.78;;;-1.22;100.00
6938;BME280;40040;42.706;23.372;2023-12-29T05:59:01;143901.63;;;-1.20;100.00
6938;BME280;40040;42.706;23.372;2023-12-29T06:01:28;143904.09;;;-1.19;100.00
6938;BME280;40040;42.706;23.372;2023-12-29T06:03:55;143899.19;;;-1.21;100.00
6938;BME280;40040;42.706;23.372;2023-12-29T06:06:24;143894.31;;;-1.23;100.00
6938;BME280;40040;42.706;23.372;2023-12-29T06:08:51;143943.19;;;-1.03;100.00
6938;BME280;40040;42.706;23.372;2023-12-29T06:11:17;143919.97;;;-1.13;100.00
6938;BME280;40040;42.706;23.372;2023-12-29T06:13:45;143952.94;;;-0.99;100.00
6938;BME280;40040;42.706;23.372;2023-12-29T06:16:17;143955.41;;;-0.98;100.00
6938;BME280;40040;42.706;23.372;2023-12-29T06:18:45;143944.38;;;-1.02;100.00
6938;BME280;40040;42.706;23.372;2023-12-29T06:21:12;143938.28;;;-1.05;100.00
6938;BME280;40040;42.706;23.372;2023-12-29T06:23:40;143960.31;;;-0.96;100.00
6938;BME280;40040;42.706;23.372;2023-12-29T06:26:13;143970.03;;;-0.92;100.00
6938;BME280;40040;42.706;23.372;2023-12-29T06:28:40;143967.63;;;-0.93;100.00
6938;BME280;40040;42.706;23.372;2023-12-29T06:31:07;143968.84;;;-0.92;100.00
6938;BME280;40040;42.706;23.372;2023-12-29T06:33:34;143979.84;;;-0.88;100.00
6938;BME280;40040;42.706;23.372;2023-12-29T06:36:01;143970.03;;;-0.92;100.00
6938;BME280;40040;42.706;23.372;2023-12-29T06:38:28;144001.84;;;-0.79;100.00
6938;BME280;40040;42.706;23.372;2023-12-29T06:40:57;143987.16;;;-0.85;100.00
6938;BME280;40040;42.706;23.372;2023-12-29T06:43:24;144012.81;;;-0.74;100.00
6938;BME280;40040;42.706;23.372;2023-12-29T06:45:51;144018.94;;;-0.72;100.00
6938;BME280;40040;42.706;23.372;2023-12-29T06:48:18;144033.59;;;-0.66;100.00
6938;BME280;40040;42.706;23.372;2023-12-29T06:50:45;143968.84;;;-0.92;100.00
6938;BME280;40040;42.706;23.372;2023-12-29T06:53:12;143918.72;;;-1.13;100.00
6938;BME280;40040;42.706;23.372;2023-12-29T06:55:39;143999.38;;;-0.80;100.00
6938;BME280;40040;42.706;23.372;2023-12-29T06:58:07;144059.25;;;-0.55;100.00
6938;BME280;40040;42.706;23.372;2023-12-29T07:00:34;144043.38;;;-0.62;100.00
6938;BME280;40040;42.706;23.372;2023-12-29T07:03:01;143939.50;;;-1.04;100.00
6938;BME280;40040;42.706;23.372;2023-12-29T07:05:29;144036.06;;;-0.65;100.00
6938;BME280;40040;42.706;23.372;2023-12-29T07:07:57;144014.06;;;-0.74;100.00
6938;BME280;40040;42.706;23.372;2023-12-29T07:10:24;144038.47;;;-0.64;100.00
6938;BME280;40040;42.706;23.372;2023-12-29T07:12:51;144069.03;;;-0.51;100.00
6938;BME280;40040;42.706;23.372;2023-12-29T07:15:19;144093.47;;;-0.41;100.00
6938;BME280;40040;42.706;23.372;2023-12-29T07:17:48;144127.72;;;-0.27;100.00
6938;BME280;40040;42.706;23.372;2023-12-29T07:20:15;144109.38;;;-0.35;100.00
6938;BME280;40040;42.706;23.372;2023-12-29T07:22:42;144175.41;;;-0.08;100.00
6938;BME280;40040;42.706;23.372;2023-12-29T07:25:09;144161.94;;;-0.13;100.00
6938;BME280;40040;42.706;23.372;2023-12-29T07:27:36;144182.75;;;-0.05;100.00
6938;BME280;40040;42.706;23.372;2023-12-29T07:30:04;144215.75;;;0.09;100.00
6938;BME280;40040;42.706;23.372;2023-12-29T07:32:33;144231.69;;;0.16;100.00
6938;BME280;40040;42.706;23.372;2023-12-29T07:34:59;144245.09;;;0.21;100.00
6938;BME280;40040;42.706;23.372;2023-12-29T07:37:27;144245.09;;;0.21;100.00
6938;BME280;40040;42.706;23.372;2023-12-29T07:39:53;144247.56;;;0.22;100.00
6938;BME280;40040;42.706;23.372;2023-12-29T07:42:20;144264.69;;;0.29;100.00
6938;BME280;40040;42.706;23.372;2023-12-29T07:44:47;144269.59;;;0.31;100.00
6938;BME280;40040;42.706;23.372;2023-12-29T07:47:14;144256.13;;;0.26;100.00
6938;BME280;40040;42.706;23.372;2023-12-29T07:49:42;144261.03;;;0.28;100.00
6938;BME280;40040;42.706;23.372;2023-12-29T07:52:09;144209.66;;;0.07;100.00
6938;BME280;40040;42.706;23.372;2023-12-29T07:54:36;144246.31;;;0.22;100.00
6938;BME280;40040;42.706;23.372;2023-12-29T07:57:03;144259.78;;;0.27;100.00
6938;BME280;40040;42.706;23.372;2023-12-29T07:59:30;144270.78;;;0.32;100.00
6938;BME280;40040;42.706;23.372;2023-12-29T08:01:57;144274.44;;;0.33;100.00
6938;BME280;40040;42.706;23.372;2023-12-29T08:04:24;144302.59;;;0.45;100.00
6938;BME280;40040;42.706;23.372;2023-12-29T08:06:52;144327.06;;;0.55;100.00
6938;BME280;40040;42.706;23.372;2023-12-29T08:09:19;144373.56;;;0.74;100.00
6938;BME280;40040;42.706;23.372;2023-12-29T08:11:46;144399.25;;;0.84;100.00
6938;BME280;40040;42.706;23.372;2023-12-29T08:14:13;144422.53;;;0.94;100.00
6938;BME280;40040;42.706;23.372;2023-12-29T08:16:40;144418.81;;;0.92;100.00
6938;BME280;40040;42.706;23.372;2023-12-29T08:19:07;144492.28;;;1.23;100.00
6938;BME280;40040;42.706;23.372;2023-12-29T08:21:35;144488.59;;;1.21;100.00
6938;BME280;40040;42.706;23.372;2023-12-29T08:24:04;144506.97;;;1.29;100.00
6938;BME280;40040;42.706;23.372;2023-12-29T08:26:31;144547.38;;;1.45;100.00
6938;BME280;40040;42.706;23.372;2023-12-29T08:28:58;144581.66;;;1.59;100.00
6938;BME280;40040;42.706;23.372;2023-12-29T08:31:24;144628.19;;;1.78;100.00
6938;BME280;40040;42.706;23.372;2023-12-29T08:33:52;144657.59;;;1.90;100.00
6938;BME280;40040;42.706;23.372;2023-12-29T08:36:20;144700.47;;;2.08;100.00
6938;BME280;40040;42.706;23.372;2023-12-29T08:38:47;144713.94;;;2.13;100.00
6938;BME280;40040;42.706;23.372;2023-12-29T08:41:16;144715.19;;;2.14;100.00
6938;BME280;40040;42.706;23.372;2023-12-29T08:43:47;144748.25;;;2.27;100.00
6938;BME280;40040;42.706;23.372;2023-12-29T08:46:14;144794.81;;;2.47;100.00
6938;BME280;40040;42.706;23.372;2023-12-29T08:48:40;144829.13;;;2.61;100.00
6938;BME280;40040;42.706;23.372;2023-12-29T08:51:07;144887.97;;;2.85;100.00
6938;BME280;40040;42.706;23.372;2023-12-29T08:53:34;144922.31;;;2.99;100.00
6938;BME280;40040;42.706;23.372;2023-12-29T08:56:01;144989.72;;;3.26;100.00
6938;BME280;40040;42.706;23.372;2023-12-29T08:58:30;145035.13;;;3.45;100.00
6938;BME280;40040;42.706;23.372;2023-12-29T09:00:57;145071.94;;;3.60;100.00
6938;BME280;40040;42.706;23.372;2023-12-29T09:03:24;145120.97;;;3.80;100.00
6938;BME280;40040;42.706;23.372;2023-12-29T09:05:51;145135.72;;;3.86;100.00
6938;BME280;40040;42.706;23.372;2023-12-29T09:08:18;145179.91;;;4.04;100.00
6938;BME280;40040;42.706;23.372;2023-12-29T09:10:45;145226.53;;;4.23;100.00
6938;BME280;40040;42.706;23.372;2023-12-29T09:13:12;145253.50;;;4.34;100.00
6938;BME280;40040;42.706;23.372;2023-12-29T09:15:40;145290.38;;;4.49;100.00
6938;BME280;40040;42.706;23.372;2023-12-29T09:18:07;145337.03;;;4.69;100.00
6938;BME280;40040;42.706;23.372;2023-12-29T09:20:35;145356.66;;;4.77;100.00
6938;BME280;40040;42.706;23.372;2023-12-29T09:23:02;145436.47;;;5.09;100.00
6938;BME280;40040;42.706;23.372;2023-12-29T09:25:29;145484.38;;;5.29;100.00
6938;BME280;40040;42.706;23.372;2023-12-29T09:27:56;145540.91;;;5.52;100.00
6938;BME280;40040;42.706;23.372;2023-12-29T09:30:23;145566.72;;;5.62;100.00
6938;BME280;40040;42.706;23.372;2023-12-29T09:32:51;145579.00;;;5.67;100.00
6938;BME280;40040;42.706;23.372;2023-12-29T09:35:18;145565.47;;;5.62;100.00
6938;BME280;40040;42.706;23.372;2023-12-29T09:37:46;145602.31;;;5.77;100.00
6938;BME280;40040;42.706;23.372;2023-12-29T09:40:14;145506.50;;;5.38;100.00
6938;BME280;40040;42.706;23.372;2023-12-29T09:42:43;145599.88;;;5.76;100.00
6938;BME280;40040;42.706;23.372;2023-12-29T09:45:11;145617.13;;;5.83;100.00
6938;BME280;40040;42.706;23.372;2023-12-29T09:47:40;145644.19;;;5.94;100.00
6938;BME280;40040;42.706;23.372;2023-12-29T09:50:10;145715.47;;;6.23;100.00
6938;BME280;40040;42.706;23.372;2023-12-29T09:52:38;145767.13;;;6.44;100.00
6938;BME280;40040;42.706;23.372;2023-12-29T09:55:08;145837.19;;;6.73;100.00
6938;BME280;40040;42.706;23.372;2023-12-29T09:57:36;145904.88;;;7.01;100.00
6938;BME280;40040;42.706;23.372;2023-12-29T10:00:04;146008.19;;;7.43;100.00
6938;BME280;40040;42.706;23.372;2023-12-29T10:02:31;146080.81;;;7.72;100.00
6938;BME280;40040;42.706;23.372;2023-12-29T10:05:01;146180.56;;;8.13;100.00
6938;BME280;40040;42.706;23.372;2023-12-29T10:07:35;146200.25;;;8.21;100.00
6938;BME280;40040;42.706;23.372;2023-12-29T10:10:04;146279.13;;;8.53;100.00
6938;BME280;40040;42.706;23.372;2023-12-29T10:12:32;146375.25;;;8.92;100.00
6938;BME280;40040;42.706;23.372;2023-12-29T10:15:05;146461.47;;;9.28;100.00
6938;BME280;40040;42.706;23.372;2023-12-29T10:17:47;146540.38;;;9.60;100.00
6938;BME280;40040;42.706;23.372;2023-12-29T10:20:24;146643.97;;;10.02;100.00
6938;BME280;40040;42.706;23.372;2023-12-29T10:23:05;146734.03;;;10.39;97.81
6938;BME280;40040;42.706;23.372;2023-12-29T10:25:33;146782.16;;;10.58;95.51
6938;BME280;40040;42.706;23.372;2023-12-29T10:28:01;146895.66;;;11.04;94.84
6938;BME280;40040;42.706;23.372;2023-12-29T10:30:30;146977.13;;;11.38;92.39
6938;BME280;40040;42.706;23.372;2023-12-29T10:32:57;146973.44;;;11.36;90.23
6938;BME280;40040;42.706;23.372;2023-12-29T10:35:26;146995.66;;;11.45;89.03
6938;BME280;40040;42.706;23.372;2023-12-29T10:37:53;147106.84;;;11.90;87.22
6938;BME280;40040;42.706;23.372;2023-12-29T10:40:21;147122.88;;;11.97;85.62
6938;BME280;40040;42.706;23.372;2023-12-29T10:42:52;147082.09;;;11.80;85.47
6938;BME280;40040;42.706;23.372;2023-12-29T10:45:20;147073.50;;;11.77;87.07
6938;BME280;40040;42.706;23.372;2023-12-29T10:47:47;147047.59;;;11.66;86.13
6938;BME280;40040;42.706;23.372;2023-12-29T10:50:14;147161.19;;;12.12;86.87
6938;BME280;40040;42.706;23.372;2023-12-29T10:52:41;147253.81;;;12.50;85.41
6938;BME280;40040;42.706;23.372;2023-12-29T10:55:09;147305.72;;;12.71;82.92
6938;BME280;40040;42.706;23.372;2023-12-29T10:57:39;147353.94;;;12.91;82.54
6938;BME280;40040;42.706;23.372;2023-12-29T11:00:08;147402.19;;;13.10;82.46
6938;BME280;40040;42.706;23.372;2023-12-29T11:02:37;147442.97;;;13.27;80.62
6938;BME280;40040;42.706;23.372;2023-12-29T11:05:05;147501.09;;;13.50;81.23
6938;BME280;40040;42.706;23.372;2023-12-29T11:07:34;147535.72;;;13.65;80.34
6938;BME280;40040;42.706;23.372;2023-12-29T11:10:03;147612.41;;;13.96;78.68
6938;BME280;40040;42.706;23.372;2023-12-29T11:12:32;147692.84;;;14.28;79.22
6938;BME280;40040;42.706;23.372;2023-12-29T11:15:02;147777.03;;;14.62;78.21
6938;BME280;40040;42.706;23.372;2023-12-29T11:17:31;147819.09;;;14.80;77.19
6938;BME280;40040;42.706;23.372;2023-12-29T11:19:59;147851.25;;;14.93;77.31
6938;BME280;40040;42.706;23.372;2023-12-29T11:22:28;147885.91;;;15.07;76.53
6938;BME280;40040;42.706;23.372;2023-12-29T11:24:56;147940.44;;;15.29;75.52
6938;BME280;40040;42.706;23.372;2023-12-29T11:27:27;147986.28;;;15.47;74.25
6938;BME280;40040;42.706;23.372;2023-12-29T11:29:55;148013.53;;;15.58;75.17
6938;BME280;40040;42.706;23.372;2023-12-29T11:32:30;148085.38;;;15.88;73.43
6938;BME280;40040;42.706;23.372;2023-12-29T11:35:06;148129.94;;;16.06;73.40
6938;BME280;40040;42.706;23.372;2023-12-29T11:37:55;148256.38;;;16.57;71.91
6938;BME280;40040;42.706;23.372;2023-12-29T11:40:29;148288.63;;;16.70;70.65
6938;BME280;40040;42.706;23.372;2023-12-29T11:43:02;148390.25;;;17.11;68.91
6938;BME280;40040;42.706;23.372;2023-12-29T11:45:30;148355.56;;;16.97;68.57
6938;BME280;40040;42.706;23.372;2023-12-29T11:48:01;148319.59;;;16.82;69.22
6938;BME280;40040;42.706;23.372;2023-12-29T11:50:30;148328.25;;;16.86;68.28
6938;BME280;40040;42.706;23.372;2023-12-29T11:52:57;148351.84;;;16.96;68.19
6938;BME280;40040;42.706;23.372;2023-12-29T11:55:28;148411.34;;;17.20;67.33
6938;BME280;40040;42.706;23.372;2023-12-29T11:57:56;148478.38;;;17.47;66.65
6938;BME280;40040;42.706;23.372;2023-12-29T12:00:41;148563.94;;;17.81;65.50
6938;BME280;40040;42.706;23.372;2023-12-29T12:03:27;148653.25;;;18.18;63.01
6938;BME280;40040;42.706;23.372;2023-12-29T12:05:55;148717.84;;;18.44;61.92
6938;BME280;40040;42.706;23.372;2023-12-29T12:08:28;148779.91;;;18.69;61.58
6938;BME280;40040;42.706;23.372;2023-12-29T12:10:56;148855.63;;;18.99;60.17
6938;BME280;40040;42.706;23.372;2023-12-29T12:13:44;148856.88;;;19.00;59.13
6938;BME280;40040;42.706;23.372;2023-12-29T12:19:13;148717.84;;;18.44;60.64
6938;BME280;40040;42.706;23.372;2023-12-29T12:21:40;148740.19;;;18.53;59.96
6938;BME280;40040;42.706;23.372;2023-12-29T12:24:08;148716.59;;;18.43;59.56
6938;BME280;40040;42.706;23.372;2023-12-29T12:26:36;148757.56;;;18.60;60.11
6938;BME280;40040;42.706;23.372;2023-12-29T12:29:03;148792.31;;;18.74;60.40
6938;BME280;40040;42.706;23.372;2023-12-29T12:31:30;148887.88;;;19.13;58.65
6938;BME280;40040;42.706;23.372;2023-12-29T12:33:57;148986.06;;;19.52;57.60
6938;BME280;40040;42.706;23.372;2023-12-29T12:36:27;149111.53;;;20.03;55.81
6938;BME280;40040;42.706;23.372;2023-12-29T12:38:54;149095.34;;;19.96;54.56
6938;BME280;40040;42.706;23.372;2023-12-29T12:41:22;149111.53;;;20.03;54.81
6938;BME280;40040;42.706;23.372;2023-12-29T12:43:56;149142.53;;;20.15;55.47
6938;BME280;40040;42.706;23.372;2023-12-29T12:46:24;149245.78;;;20.57;54.45
6938;BME280;40040;42.706;23.372;2023-12-29T12:48:52;149314.13;;;20.85;51.70
6938;BME280;40040;42.706;23.372;2023-12-29T12:51:20;149394.97;;;21.17;50.12
6938;BME280;40040;42.706;23.372;2023-12-29T12:53:49;149403.69;;;21.21;49.68
6938;BME280;40040;42.706;23.372;2023-12-29T12:56:17;149324.03;;;20.89;50.92